Las Compuertas, Argentina
Current Conditions -  °F | °C
As of 7:00 AM on Sunday 25 Jan 2015 (Local Time) from SAME Reporting Station
Thunderstorm Thunderstorm  
Wind Chill: 81°   Ceiling: Unl
Heat Index: 82°   Visibility: 6mi
Dew Point: 63°   Wind: 14mph
Humidity: 54%   Direction: 160°SSE
Pressure: 29.88"   Gusts: NA
Location:  33.03°S, 68.98°W
Report Text: SAME 251000Z 16012KT 9999 VCTS FEW045CB SCT050 27/17 Q1012
Loading
Personal Weather Stations






























Interactive Weather Map New forecast layout! Learn more

10-Day Weather Forecast

Advertisements
Track Severe Weather on mobile